Rolla, Kansas
Current Conditions -  °F | °C
As of 8:53 AM on Friday 19 Dec 2014 (Local Time) from KGUY Reporting Station
Overcast Overcast  
Wind Chill: 32°   Ceiling: 1200
Heat Index: 36°   Visibility: 10mi
Dew Point: 31°   Wind: 5mph
Humidity: 82%   Direction: 240°WSW
Pressure: 30.15"   Gusts: NA
Location:  37.12°N, 101.63°W
Report Text: KGUY 191453Z AUTO 24004KT 10SM OVC012 02/M01 A3015 RMK AO2 SLP213 T00221006 53010
Loading
Personal Weather Stations






























Interactive Weather Map New forecast layout! Learn more

10-Day Weather Forecast

Advertisements
Track Severe Weather on mobile